Time;durP1;ratioP1;P1;durP2;ratioP2;P2;SDS_P1;SDS_P2;PMS_P1;PMS_P2;Temp;Humidity;BMP_temperature;BMP_pressure;BME280_temperature;BME280_humidity;BME280_pressure;Samples;Min_cycle;Max_cycle;Signal;HPM_P1;HPM_P2
2022/03/24 00:00:01;;;;;;;36.90;15.20;;;;;;;9.94;36.58;102885.69;4961491;28;123530;-58
2022/03/24 00:02:39;;;;;;;30.63;13.93;;;;;;;9.91;36.75;102888.38;4957475;28;124597;-58
2022/03/24 00:05:08;;;;;;;32.70;14.65;;;;;;;9.91;36.54;102892.78;4961907;28;114349;-59
2022/03/24 00:07:35;;;;;;;33.80;15.52;;;;;;;9.89;36.74;102884.84;4961680;28;113671;-58
2022/03/24 00:10:03;;;;;;;37.28;15.38;;;;;;;9.88;36.86;102883.09;4960051;28;125017;-58
2022/03/24 00:12:30;;;;;;;33.50;15.00;;;;;;;9.86;37.21;102884.88;4955653;28;124293;-58
2022/03/24 00:14:57;;;;;;;34.75;15.13;;;;;;;9.87;37.08;102881.34;4956819;28;114834;-58
2022/03/24 00:17:24;;;;;;;31.23;14.85;;;;;;;9.86;37.12;102882.22;4953089;28;113954;-58
2022/03/24 00:19:51;;;;;;;35.20;15.20;;;;;;;9.85;36.77;102888.44;4958721;28;124277;-58
2022/03/24 00:22:18;;;;;;;33.40;15.75;;;;;;;9.82;37.15;102883.16;4960197;28;124428;-58
2022/03/24 00:24:45;;;;;;;35.42;15.15;;;;;;;9.79;37.10;102888.47;4956643;28;114111;-58
2022/03/24 00:27:14;;;;;;;30.88;15.10;;;;;;;9.75;36.89;102881.44;4959174;28;115047;-58
2022/03/24 00:29:42;;;;;;;33.20;15.50;;;;;;;9.72;37.24;102876.19;4949899;28;124692;-58
2022/03/24 00:32:09;;;;;;;32.67;15.48;;;;;;;9.70;37.21;102877.97;4959785;28;124074;-59
2022/03/24 00:34:38;;;;;;;34.70;15.65;;;;;;;9.67;37.48;102878.88;4963596;28;114457;-58
2022/03/24 00:37:09;;;;;;;37.05;15.52;;;;;;;9.66;37.42;102881.53;4962223;28;114397;-59
2022/03/24 00:39:40;;;;;;;34.00;14.82;;;;;;;9.60;37.38;102878.94;4959323;28;124485;-60
2022/03/24 00:42:09;;;;;;;30.25;14.32;;;;;;;9.51;37.42;102883.41;4963478;28;124718;-59
2022/03/24 00:44:44;;;;;;;39.10;15.27;;;;;;;9.47;37.73;102881.66;4959707;28;114990;-58
2022/03/24 00:47:16;;;;;;;32.13;14.40;;;;;;;9.42;37.60;102878.19;4952802;28;114578;-58
2022/03/24 00:49:47;;;;;;;34.78;15.68;;;;;;;9.35;37.55;102871.19;4959509;28;124123;-59
2022/03/24 00:52:14;;;;;;;29.05;13.60;;;;;;;9.31;37.43;102869.47;4951958;28;122813;-58
2022/03/24 00:54:41;;;;;;;34.53;16.00;;;;;;;9.25;37.71;102867.75;4963170;28;114139;-59
2022/03/24 00:57:09;;;;;;;34.42;14.88;;;;;;;9.22;37.80;102869.53;4958648;28;113884;-59
2022/03/24 00:59:37;;;;;;;33.47;15.48;;;;;;;9.18;37.66;102867.78;4958776;28;123231;-59
2022/03/24 01:02:09;;;;;;;33.88;15.38;;;;;;;9.13;37.70;102866.03;4963657;28;122751;-59
2022/03/24 01:04:37;;;;;;;29.75;14.00;;;;;;;9.12;37.98;102859.00;4957890;28;113038;-59
2022/03/24 01:07:04;;;;;;;29.02;14.50;;;;;;;9.07;37.53;102860.78;4955551;28;114082;-60
2022/03/24 01:09:31;;;;;;;32.70;14.07;;;;;;;9.03;38.08;102859.06;4958986;28;122891;-59
2022/03/24 01:11:59;;;;;;;30.58;14.95;;;;;;;9.01;38.08;102870.53;4958653;28;124237;-59
2022/03/24 01:14:26;;;;;;;28.00;14.35;;;;;;;8.94;37.80;102864.41;4966487;28;114580;-59
2022/03/24 01:16:53;;;;;;;31.23;15.27;;;;;;;8.89;38.14;102860.91;4962036;28;115029;-59
2022/03/24 01:19:20;;;;;;;34.25;14.88;;;;;;;8.83;37.92;102848.59;4959885;28;123145;-59
2022/03/24 01:21:47;;;;;;;28.92;14.35;;;;;;;8.79;38.05;102853.91;4956680;28;122966;-59
2022/03/24 01:24:15;;;;;;;31.48;13.43;;;;;;;8.75;37.92;102850.41;4968609;28;113981;-59
2022/03/24 01:26:43;;;;;;;31.58;14.30;;;;;;;8.70;38.23;102854.84;4966127;28;112984;-59
2022/03/24 01:29:11;;;;;;;30.90;14.25;;;;;;;8.66;38.39;102848.69;4949217;28;123133;-59
2022/03/24 01:31:42;;;;;;;32.67;14.90;;;;;;;8.63;38.48;102856.63;4961536;28;124244;-59
2022/03/24 01:34:09;;;;;;;36.80;15.55;;;;;;;8.60;38.43;102848.72;4963521;28;114527;-58
2022/03/24 01:36:36;;;;;;;29.45;14.45;;;;;;;8.59;38.02;102849.63;4962457;28;115021;-59
2022/03/24 01:39:07;;;;;;;30.40;14.63;;;;;;;8.57;38.46;102846.09;4960950;28;123369;-59
2022/03/24 01:41:34;;;;;;;29.40;14.95;;;;;;;8.53;38.27;102846.97;4965718;28;124029;-59
2022/03/24 01:44:02;;;;;;;30.13;14.85;;;;;;;8.51;38.56;102843.47;4952048;28;113700;-60
2022/03/24 01:46:30;;;;;;;31.92;14.27;;;;;;;8.47;38.55;102841.72;4958023;28;114361;-59
2022/03/24 01:48:57;;;;;;;30.63;14.75;;;;;;;8.45;38.44;102843.50;4957354;28;125165;-59
2022/03/24 01:51:24;;;;;;;32.40;14.23;;;;;;;8.41;38.33;102847.00;4963981;28;122821;-59
2022/03/24 01:53:53;;;;;;;30.13;14.85;;;;;;;8.36;38.28;102840.00;4960324;28;115018;-59
2022/03/24 01:56:20;;;;;;;30.40;14.88;;;;;;;8.34;38.51;102836.47;4963618;28;114152;-59
2022/03/24 01:58:50;;;;;;;30.20;14.98;;;;;;;8.33;38.59;102840.00;4964218;28;123228;-59
2022/03/24 02:01:34;;;;;;;30.17;14.35;;;;;;;8.30;38.82;102834.72;4953761;28;123202;-58
2022/03/24 02:04:06;;;;;;;36.28;15.75;;;;;;;8.31;38.44;102841.75;4965002;28;114949;-58
2022/03/24 02:06:35;;;;;;;30.48;14.68;;;;;;;8.29;38.85;102834.75;4945935;28;114604;-59
2022/03/24 02:09:04;;;;;;;31.42;15.02;;;;;;;8.27;38.79;102834.75;4958989;28;123989;-59
2022/03/24 02:11:33;;;;;;;31.77;15.85;;;;;;;8.27;38.93;102834.75;4962159;28;121959;-58
2022/03/24 02:14:02;;;;;;;30.77;15.00;;;;;;;8.26;38.85;102838.25;4962536;28;114622;-59
2022/03/24 02:16:34;;;;;;;36.63;15.75;;;;;;;8.26;38.93;102837.38;4955248;28;113148;-59
2022/03/24 02:19:20;;;;;;;30.83;15.30;;;;;;;8.24;38.87;102832.09;4957342;28;124515;-59
2022/03/24 02:21:50;;;;;;;29.08;13.70;;;;;;;8.23;38.89;102827.72;4962536;28;124116;-59
2022/03/24 02:24:21;;;;;;;30.92;15.10;;;;;;;8.19;39.15;102815.38;4957337;28;114160;-60
2022/03/24 02:26:49;;;;;;;34.40;15.68;;;;;;;8.17;38.87;102819.81;4959479;28;114118;-59
2022/03/24 02:29:18;;;;;;;30.70;14.40;;;;;;;8.15;38.99;102821.56;4958821;28;123899;-59
2022/03/24 02:31:49;;;;;;;29.63;15.35;;;;;;;8.12;39.23;102824.22;4951379;28;124777;-59
2022/03/24 02:34:37;;;;;;;31.83;14.85;;;;;;;8.10;39.37;102825.97;4959465;28;114287;-58
2022/03/24 02:37:10;;;;;;;33.15;14.98;;;;;;;8.06;39.11;102826.88;4959083;28;114079;-58
2022/03/24 02:39:40;;;;;;;34.28;15.43;;;;;;;8.03;39.25;102829.53;4959270;28;124062;-58
2022/03/24 02:42:14;;;;;;;34.42;14.38;;;;;;;7.99;39.21;102831.31;4954917;28;124532;-59
2022/03/24 02:44:48;;;;;;;31.60;14.30;;;;;;;7.96;39.42;102829.53;4955010;28;114961;-58
2022/03/24 02:47:16;;;;;;;31.55;14.60;;;;;;;7.93;39.21;102829.56;4958891;28;114359;-58
2022/03/24 02:49:49;;;;;;;28.17;14.32;;;;;;;7.91;39.28;102820.75;4961630;28;124091;-58
2022/03/24 02:52:17;;;;;;;31.23;14.75;;;;;;;7.88;39.26;102831.31;4958619;28;122446;-58
2022/03/24 02:54:44;;;;;;;28.05;14.38;;;;;;;7.84;39.50;102824.28;4956874;28;115861;-59
2022/03/24 02:57:12;;;;;;;29.20;13.82;;;;;;;7.79;39.62;102826.91;4958327;28;114975;-58
2022/03/24 02:59:40;;;;;;;28.30;14.43;;;;;;;7.78;39.73;102834.84;4957967;28;123831;-59
2022/03/24 03:02:13;;;;;;;27.73;14.65;;;;;;;7.75;39.73;102826.94;4958143;28;123763;-58
2022/03/24 03:04:42;;;;;;;28.75;14.23;;;;;;;7.73;39.58;102824.28;4968173;28;113433;-58
2022/03/24 03:07:11;;;;;;;32.45;14.90;;;;;;;7.71;39.56;102830.47;4951827;28;114204;-58
2022/03/24 03:09:39;;;;;;;29.10;14.07;;;;;;;7.70;39.87;102832.19;4959726;28;124895;-58
2022/03/24 03:12:09;;;;;;;32.40;15.00;;;;;;;7.69;39.90;102829.59;4957682;28;124345;-60
2022/03/24 03:14:38;;;;;;;32.28;14.63;;;;;;;7.68;39.75;102830.47;4957014;28;113433;-58
2022/03/24 03:17:06;;;;;;;30.23;13.98;;;;;;;7.66;39.82;102829.59;4959457;28;113362;-58
2022/03/24 03:19:34;;;;;;;29.73;14.65;;;;;;;7.66;40.28;102829.59;4961643;28;124726;-58
2022/03/24 03:22:03;;;;;;;33.90;14.63;;;;;;;7.64;40.06;102826.06;4956019;28;123614;-58
2022/03/24 03:24:30;;;;;;;30.52;14.30;;;;;;;7.62;39.99;102823.44;4965377;28;114641;-58
2022/03/24 03:26:57;;;;;;;28.40;13.93;;;;;;;7.59;40.00;102833.97;4952337;28;114046;-59
2022/03/24 03:29:25;;;;;;;33.33;14.82;;;;;;;7.58;40.28;102827.81;4961259;28;124255;-58
2022/03/24 03:31:54;;;;;;;30.05;14.95;;;;;;;7.57;40.12;102826.09;4964863;28;124341;-58
2022/03/24 03:34:25;;;;;;;28.92;14.45;;;;;;;7.55;40.38;102837.50;4957110;28;114662;-57
2022/03/24 03:36:54;;;;;;;32.97;14.90;;;;;;;7.54;40.12;102836.63;4958465;28;114070;-58
2022/03/24 03:39:22;;;;;;;31.60;14.48;;;;;;;7.53;40.35;102833.97;4952165;28;124658;-58
2022/03/24 03:41:50;;;;;;;29.05;14.75;;;;;;;7.51;40.34;102831.34;4956579;28;124529;-58
2022/03/24 03:44:19;;;;;;;30.13;15.25;;;;;;;7.50;40.39;102836.63;4963325;28;114890;-58
2022/03/24 03:46:47;;;;;;;30.35;14.65;;;;;;;7.48;40.54;102831.34;4959215;28;115044;-58
2022/03/24 03:49:14;;;;;;;28.48;14.38;;;;;;;7.46;40.44;102833.13;4951262;28;123985;-58
2022/03/24 03:51:42;;;;;;;31.80;14.45;;;;;;;7.44;40.47;102834.88;4960994;28;124210;-58
2022/03/24 03:54:09;;;;;;;30.88;14.90;;;;;;;7.42;40.43;102841.88;4962061;28;114243;-58
2022/03/24 03:56:38;;;;;;;31.52;14.50;;;;;;;7.39;40.48;102836.63;4964430;28;114005;-58
2022/03/24 03:59:06;;;;;;;35.65;14.55;;;;;;;7.39;40.71;102841.91;4955980;28;124080;-58
2022/03/24 04:01:33;;;;;;;32.08;14.88;;;;;;;7.38;40.75;102837.50;4959232;28;123783;-58
2022/03/24 04:04:02;;;;;;;30.42;14.95;;;;;;;7.36;40.42;102831.34;4956632;28;114476;-58
2022/03/24 04:06:29;;;;;;;29.02;13.90;;;;;;;7.36;40.45;102836.63;4958399;28;113899;-58
2022/03/24 04:08:56;;;;;;;32.92;14.57;;;;;;;7.33;40.73;102834.00;4957631;28;124022;-58
2022/03/24 04:11:24;;;;;;;36.28;15.10;;;;;;;7.31;40.68;102833.09;4955318;28;124636;-59
2022/03/24 04:13:51;;;;;;;28.90;14.50;;;;;;;7.27;40.61;102842.78;4964202;28;113831;-58
2022/03/24 04:16:18;;;;;;;31.70;14.55;;;;;;;7.25;40.63;102833.09;4956431;28;114419;-58
2022/03/24 04:18:46;;;;;;;33.45;15.70;;;;;;;7.22;40.90;102837.47;4964606;28;123964;-58
2022/03/24 04:21:15;;;;;;;35.08;15.35;;;;;;;7.22;40.90;102833.97;4959261;28;124753;-58
2022/03/24 04:23:43;;;;;;;32.53;15.20;;;;;;;7.20;40.66;102847.16;4954910;28;114934;-58
2022/03/24 04:26:13;;;;;;;32.42;15.18;;;;;;;7.20;40.73;102846.28;4959682;28;114239;-58
2022/03/24 04:28:44;;;;;;;33.17;15.07;;;;;;;7.18;40.69;102848.91;4950840;28;123911;-58
2022/03/24 04:31:12;;;;;;;34.00;14.88;;;;;;;7.15;40.77;102843.63;4964372;28;123957;-58
2022/03/24 04:33:39;;;;;;;37.05;15.07;;;;;;;7.12;40.99;102843.63;4965699;28;114926;-58
2022/03/24 04:36:08;;;;;;;31.92;15.63;;;;;;;7.09;40.84;102843.63;4958333;28;114282;-58
2022/03/24 04:38:36;;;;;;;33.08;15.05;;;;;;;7.08;40.81;102840.97;4963574;28;123463;-58
2022/03/24 04:41:08;;;;;;;32.47;15.15;;;;;;;7.05;40.96;102841.84;4962906;28;124167;-58
2022/03/24 04:43:35;;;;;;;33.45;14.27;;;;;;;7.01;41.01;102840.09;4961356;28;115210;-58
2022/03/24 04:46:03;;;;;;;34.67;15.85;;;;;;;6.98;41.12;102834.81;4956835;28;113876;-58
2022/03/24 04:48:36;;;;;;;34.80;14.43;;;;;;;6.97;40.96;102840.97;4953309;28;123979;-58
2022/03/24 04:51:05;;;;;;;33.55;14.55;;;;;;;6.94;41.13;102838.31;4961143;28;124780;-58
2022/03/24 04:53:33;;;;;;;34.67;15.32;;;;;;;6.92;41.04;102834.81;4963766;28;114351;-58
2022/03/24 04:56:01;;;;;;;30.35;14.40;;;;;;;6.90;41.07;102836.56;4960598;28;114219;-58
2022/03/24 04:58:28;;;;;;;28.70;13.75;;;;;;;6.87;41.25;102842.69;4962676;28;124310;-59
2022/03/24 05:00:55;;;;;;;36.63;14.45;;;;;;;6.86;41.27;102834.81;4960937;28;124009;-58
2022/03/24 05:03:23;;;;;;;34.38;14.98;;;;;;;6.83;41.41;102844.41;4962053;28;114154;-58
2022/03/24 05:05:50;;;;;;;31.30;14.73;;;;;;;6.80;41.16;102841.81;4963407;28;114771;-58
2022/03/24 05:08:17;;;;;;;30.90;14.30;;;;;;;6.79;41.21;102840.03;4962965;28;123950;-58
2022/03/24 05:10:44;;;;;;;33.38;15.07;;;;;;;6.77;41.21;102844.41;4963690;28;124037;-58
2022/03/24 05:13:11;;;;;;;33.28;14.85;;;;;;;6.76;41.19;102850.56;4963569;28;114354;-59
2022/03/24 05:15:38;;;;;;;32.28;14.13;;;;;;;6.73;41.55;102845.28;4959207;28;114731;-59
2022/03/24 05:18:06;;;;;;;29.00;14.10;;;;;;;6.73;41.65;102841.78;4961363;28;123836;-59
2022/03/24 05:20:33;;;;;;;32.97;15.02;;;;;;;6.73;41.39;102849.69;4958399;28;123920;-58
2022/03/24 05:23:01;;;;;;;28.80;14.07;;;;;;;6.70;41.44;102840.00;4955419;28;115048;-59
2022/03/24 05:25:28;;;;;;;33.67;14.77;;;;;;;6.69;41.59;102846.16;4950758;28;114973;-59
2022/03/24 05:27:59;;;;;;;32.33;14.80;;;;;;;6.68;41.51;102847.00;4961782;28;124096;-59
2022/03/24 05:30:27;;;;;;;30.77;14.60;;;;;;;6.66;41.62;102847.91;4961861;28;123690;-59
2022/03/24 05:32:54;;;;;;;32.10;14.85;;;;;;;6.64;41.77;102850.50;4958388;28;114417;-58
2022/03/24 05:35:22;;;;;;;32.47;14.18;;;;;;;6.62;41.63;102857.53;4961340;28;114732;-58
2022/03/24 05:37:49;;;;;;;32.13;14.82;;;;;;;6.59;41.60;102842.63;4961446;28;124060;-58
2022/03/24 05:40:17;;;;;;;34.78;15.32;;;;;;;6.59;41.80;102852.25;4961044;28;123911;-59
2022/03/24 05:42:44;;;;;;;29.67;14.25;;;;;;;6.57;41.90;102854.00;4959966;28;114050;-59
2022/03/24 05:45:11;;;;;;;33.80;15.35;;;;;;;6.56;41.83;102857.50;4962384;28;114653;-59
2022/03/24 05:47:39;;;;;;;36.75;16.13;;;;;;;6.54;41.92;102848.72;4963909;28;124802;-58
2022/03/24 05:50:10;;;;;;;32.00;14.68;;;;;;;6.54;41.88;102856.63;4964980;28;124139;-58
2022/03/24 05:52:54;;;;;;;36.70;14.30;;;;;;;6.54;42.03;102856.63;4950446;28;113296;-59
2022/03/24 05:55:23;;;;;;;30.02;14.50;;;;;;;6.55;41.83;102861.00;4957175;28;113541;-58
2022/03/24 05:57:50;;;;;;;28.92;13.82;;;;;;;6.54;41.85;102854.88;4958992;28;123901;-59
2022/03/24 06:00:17;;;;;;;36.55;15.00;;;;;;;6.55;42.08;102861.00;4963111;28;123657;-58
2022/03/24 06:02:45;;;;;;;33.95;14.70;;;;;;;6.54;42.12;102860.13;4958574;28;114653;-58
2022/03/24 06:05:12;;;;;;;35.85;15.38;;;;;;;6.56;42.01;102857.50;4967658;28;114512;-58
2022/03/24 06:07:39;;;;;;;33.28;15.68;;;;;;;6.56;42.03;102857.50;4963755;28;123841;-58
2022/03/24 06:10:08;;;;;;;33.22;15.18;;;;;;;6.56;42.18;102852.25;4962950;28;123774;-58
2022/03/24 06:12:37;;;;;;;34.10;15.30;;;;;;;6.58;42.36;102855.75;4963483;28;114280;-58
2022/03/24 06:15:05;;;;;;;35.42;14.82;;;;;;;6.61;42.29;102858.38;4963619;28;114970;-58
2022/03/24 06:17:34;;;;;;;31.15;14.95;;;;;;;6.63;42.51;102864.56;4961057;28;124121;-58
2022/03/24 06:20:02;;;;;;;35.42;14.82;;;;;;;6.64;42.44;102861.03;4952515;28;123827;-58
2022/03/24 06:22:30;;;;;;;38.03;16.30;;;;;;;6.67;42.47;102863.69;4955088;28;113031;-58
2022/03/24 06:24:57;;;;;;;32.80;15.95;;;;;;;6.71;42.35;102868.09;4958515;28;114256;-58
2022/03/24 06:27:25;;;;;;;33.85;15.57;;;;;;;6.74;42.61;102865.50;4955377;28;123962;-58
2022/03/24 06:29:52;;;;;;;36.30;15.38;;;;;;;6.77;42.42;102868.13;4961812;28;124997;-58
2022/03/24 06:32:20;;;;;;;35.17;15.48;;;;;;;6.83;42.76;102862.84;4961988;28;114352;-58
2022/03/24 06:34:48;;;;;;;35.88;16.27;;;;;;;6.91;42.76;102859.38;4962226;28;114174;-58
2022/03/24 06:37:16;;;;;;;35.70;16.77;;;;;;;7.00;42.92;102872.56;4963781;28;124747;-58
2022/03/24 06:39:43;;;;;;;34.13;16.55;;;;;;;7.12;42.99;102864.72;4965592;28;124003;-59
2022/03/24 06:42:10;;;;;;;38.17;16.67;;;;;;;7.28;43.28;102870.00;4957384;28;114916;-58
2022/03/24 06:44:37;;;;;;;35.17;16.02;;;;;;;7.43;43.41;102859.47;4959465;28;113886;-58
2022/03/24 06:47:04;;;;;;;37.67;18.00;;;;;;;7.61;43.72;102869.16;4968508;28;124323;-59
2022/03/24 06:49:32;;;;;;;40.97;18.17;;;;;;;7.82;43.65;102873.53;4955178;28;124222;-58
2022/03/24 06:51:59;;;;;;;39.70;18.73;;;;;;;8.04;43.87;102870.84;4962556;28;114286;-58
2022/03/24 06:54:26;;;;;;;41.78;18.25;;;;;;;8.25;43.97;102867.28;4960680;28;113840;-58
2022/03/24 06:56:53;;;;;;;39.92;18.20;;;;;;;8.46;43.69;102861.13;4952126;28;124058;-58
2022/03/24 06:59:20;;;;;;;37.45;18.00;;;;;;;8.69;43.98;102859.25;4968043;28;123883;-58
2022/03/24 07:01:49;;;;;;;43.38;18.48;;;;;;;8.93;43.95;102860.03;4955666;28;115057;-58
2022/03/24 07:04:17;;;;;;;35.45;17.70;;;;;;;9.17;43.92;102861.59;4965180;28;114300;-59
2022/03/24 07:06:44;;;;;;;36.15;17.65;;;;;;;9.39;43.88;102857.06;4962952;28;124727;-58
2022/03/24 07:09:11;;;;;;;40.03;19.33;;;;;;;9.61;43.94;102856.91;4958541;28;124257;-58
2022/03/24 07:11:38;;;;;;;44.85;19.58;;;;;;;9.86;43.51;102858.41;4962425;28;115009;-59
2022/03/24 07:14:05;;;;;;;41.42;20.42;;;;;;;10.07;43.52;102859.97;4964228;28;114449;-58
2022/03/24 07:16:33;;;;;;;39.60;19.05;;;;;;;10.27;43.59;102864.19;4961431;28;124086;-59
2022/03/24 07:19:00;;;;;;;37.65;18.80;;;;;;;10.47;43.23;102866.59;4955795;28;123734;-58
2022/03/24 07:21:27;;;;;;;37.78;19.42;;;;;;;10.65;43.25;102870.81;4965789;28;114161;-58
2022/03/24 07:23:55;;;;;;;44.40;20.92;;;;;;;10.84;43.47;102871.47;4962657;28;114195;-58
2022/03/24 07:26:23;;;;;;;40.20;19.20;;;;;;;11.01;43.35;102874.75;4961616;28;123840;-58
2022/03/24 07:28:50;;;;;;;40.03;19.77;;;;;;;11.21;43.24;102870.94;4962918;28;124075;-59
2022/03/24 07:31:19;;;;;;;36.92;18.83;;;;;;;11.39;43.00;102875.94;4954330;28;114340;-59
2022/03/24 07:33:47;;;;;;;41.67;20.50;;;;;;;11.56;43.23;102877.44;4962386;28;114456;-59
2022/03/24 07:36:16;;;;;;;38.90;18.88;;;;;;;11.71;42.83;102871.88;4957077;28;124730;-59
2022/03/24 07:38:43;;;;;;;35.80;18.98;;;;;;;11.84;43.10;102868.09;4963812;28;123254;-59
2022/03/24 07:41:10;;;;;;;35.30;19.05;;;;;;;12.00;43.08;102873.19;4958754;28;114168;-59
2022/03/24 07:43:37;;;;;;;34.97;18.55;;;;;;;12.16;43.05;102869.34;4961961;28;113611;-59
2022/03/24 07:46:04;;;;;;;35.85;18.63;;;;;;;12.33;42.79;102866.34;4956612;28;124180;-59
2022/03/24 07:48:32;;;;;;;31.73;18.48;;;;;;;12.50;42.81;102873.97;4959952;28;124339;-59
2022/03/24 07:51:00;;;;;;;33.22;18.77;;;;;;;12.69;42.38;102876.25;4961880;28;115316;-59
2022/03/24 07:53:27;;;;;;;35.17;19.30;;;;;;;12.82;42.13;102875.09;4963681;28;115304;-59
2022/03/24 07:55:59;;;;;;;39.58;18.88;;;;;;;12.94;41.99;102864.19;4958635;28;124352;-59
2022/03/24 07:58:26;;;;;;;39.28;18.73;;;;;;;13.08;41.61;102870.97;4961599;28;124223;-59
2022/03/24 08:00:57;;;;;;;37.97;18.90;;;;;;;13.17;41.72;102871.63;4958195;28;114968;-59
2022/03/24 08:03:24;;;;;;;37.40;19.27;;;;;;;13.29;41.68;102870.47;4959994;28;114267;-59
2022/03/24 08:05:52;;;;;;;34.47;19.60;;;;;;;13.44;41.64;102879.91;4960906;28;124085;-59
2022/03/24 08:08:20;;;;;;;36.70;19.55;;;;;;;13.57;41.53;102875.16;4958698;28;123796;-59
2022/03/24 08:10:49;;;;;;;35.65;19.40;;;;;;;13.71;41.34;102872.13;4960621;28;114746;-59
2022/03/24 08:13:19;;;;;;;35.17;17.83;;;;;;;13.85;41.05;102880.66;4969998;28;114858;-58
2022/03/24 08:15:47;;;;;;;35.90;18.48;;;;;;;14.00;40.89;102879.38;4961719;28;124006;-59
2022/03/24 08:18:16;;;;;;;36.50;17.60;;;;;;;14.13;40.87;102883.44;4955949;28;124369;-60
2022/03/24 08:20:44;;;;;;;30.88;18.05;;;;;;;14.28;40.67;102890.16;4960014;28;114057;-59
2022/03/24 08:23:11;;;;;;;33.03;18.25;;;;;;;14.42;40.48;102881.75;4959349;28;114593;-59
2022/03/24 08:25:40;;;;;;;30.55;16.75;;;;;;;14.55;40.41;102883.16;4960341;28;124450;-59
2022/03/24 08:28:08;;;;;;;38.03;19.42;;;;;;;14.68;40.20;102890.84;4962988;28;124311;-59
2022/03/24 08:30:35;;;;;;;34.08;18.80;;;;;;;14.81;40.08;102889.56;4960419;28;114141;-59
2022/03/24 08:33:02;;;;;;;34.08;18.40;;;;;;;14.93;39.81;102894.50;4960773;28;114695;-59
2022/03/24 08:35:30;;;;;;;33.97;18.65;;;;;;;15.06;39.56;102884.31;4960639;28;124171;-59
2022/03/24 08:37:59;;;;;;;34.25;18.83;;;;;;;15.18;39.42;102888.41;4959233;28;124650;-59
2022/03/24 08:40:26;;;;;;;33.00;17.98;;;;;;;15.31;39.13;102895.13;4960650;28;115013;-59
2022/03/24 08:42:54;;;;;;;31.60;17.50;;;;;;;15.44;38.89;102895.56;4965464;28;113997;-59
2022/03/24 08:45:22;;;;;;;31.52;17.83;;;;;;;15.58;38.81;102893.34;4958328;28;124884;-59
2022/03/24 08:47:49;;;;;;;34.08;18.05;;;;;;;15.71;38.71;102893.81;4960362;28;123239;-59
2022/03/24 08:50:17;;;;;;;34.35;18.83;;;;;;;15.85;38.43;102897.84;4953686;28;114193;-59
2022/03/24 08:52:45;;;;;;;34.08;18.70;;;;;;;15.94;38.25;102903.72;4958333;28;113795;-59
2022/03/24 08:55:13;;;;;;;31.77;18.40;;;;;;;16.05;38.09;102892.66;4963892;28;124294;-59
2022/03/24 08:57:42;;;;;;;33.65;17.60;;;;;;;16.17;37.87;102890.50;4955515;28;123027;-59
2022/03/24 09:00:13;;;;;;;31.83;17.55;;;;;;;16.27;37.86;102894.56;4954895;28;114352;-59
2022/03/24 09:02:51;;;;;;;36.38;18.15;;;;;;;16.41;37.89;102900.28;4955178;28;114396;-59
2022/03/24 09:05:18;;;;;;;32.53;17.92;;;;;;;16.57;37.76;102899.72;4955850;28;124096;-59
2022/03/24 09:07:46;;;;;;;36.13;17.08;;;;;;;16.69;37.55;102896.59;4954922;28;123820;-59
2022/03/24 09:10:15;;;;;;;31.75;17.95;;;;;;;16.81;37.26;102903.28;4957900;28;114127;-59
2022/03/24 09:12:45;;;;;;;32.00;18.20;;;;;;;16.91;36.81;102904.69;4957509;28;113851;-59
2022/03/24 09:15:14;;;;;;;33.40;16.92;;;;;;;17.00;36.76;102903.47;4953652;28;123980;-59
2022/03/24 09:17:42;;;;;;;33.45;18.00;;;;;;;17.11;36.92;102895.88;4951482;28;124009;-59
2022/03/24 09:20:12;;;;;;;32.53;17.58;;;;;;;17.20;36.44;102906.22;4960661;28;114657;-60
2022/03/24 09:22:42;;;;;;;28.65;16.58;;;;;;;17.32;36.33;102904.84;4958126;28;113764;-59
2022/03/24 09:25:12;;;;;;;32.70;17.25;;;;;;;17.44;36.22;102908.84;4958831;28;124204;-59
2022/03/24 09:27:40;;;;;;;27.85;16.92;;;;;;;17.58;36.14;102906.47;4961106;28;124246;-59
2022/03/24 09:30:08;;;;;;;28.15;16.35;;;;;;;17.71;35.72;102913.06;4951856;28;115548;-58
2022/03/24 09:32:36;;;;;;;31.45;17.02;;;;;;;17.83;35.37;102905.44;4955959;28;115125;-59
2022/03/24 09:35:04;;;;;;;31.35;16.88;;;;;;;17.93;35.33;102906.78;4959689;28;123763;-59
2022/03/24 09:37:33;;;;;;;31.10;16.88;;;;;;;18.04;35.14;102904.53;4963346;28;124352;-59
2022/03/24 09:40:02;;;;;;;29.48;16.88;;;;;;;18.15;34.86;102905.88;4971122;28;113090;-59
2022/03/24 09:42:30;;;;;;;27.33;16.27;;;;;;;18.27;34.64;102910.69;4964650;28;114893;-59
2022/03/24 09:45:00;;;;;;;29.15;16.48;;;;;;;18.38;34.64;102912.91;4961360;28;124558;-59
2022/03/24 09:47:29;;;;;;;27.20;16.60;;;;;;;18.47;34.39;102902.63;4960729;28;122831;-60
2022/03/24 09:49:57;;;;;;;28.27;17.10;;;;;;;18.57;33.93;102902.19;4958329;28;114584;-59
2022/03/24 09:52:25;;;;;;;27.95;16.85;;;;;;;18.67;34.04;102908.91;4965187;28;114227;-59
2022/03/24 09:54:54;;;;;;;27.65;16.17;;;;;;;18.75;34.18;102908.53;4962861;28;124122;-59
2022/03/24 09:57:23;;;;;;;30.48;16.92;;;;;;;18.84;33.84;102911.69;4964765;28;123820;-60
2022/03/24 09:59:52;;;;;;;27.75;16.13;;;;;;;18.95;33.44;102903.13;4957545;28;114485;-60
2022/03/24 10:02:19;;;;;;;27.90;16.05;;;;;;;19.05;33.40;102903.56;4958130;28;114076;-60
2022/03/24 10:04:48;;;;;;;29.83;17.27;;;;;;;19.15;33.38;102902.16;4962247;28;124806;-59
2022/03/24 10:07:18;;;;;;;28.73;16.33;;;;;;;19.26;33.10;102907.88;4959230;28;123128;-59
2022/03/24 10:09:49;;;;;;;28.00;15.82;;;;;;;19.36;32.80;102896.69;4961840;28;115042;-60
2022/03/24 10:14:22;;;;;;;28.30;15.80;;;;;;;19.51;32.87;102911.19;5020030;28;97029;-61
2022/03/24 10:16:50;;;;;;;28.92;16.85;;;;;;;19.58;33.01;102902.72;5005216;28;109989;-61
2022/03/24 10:19:18;;;;;;;28.70;17.00;;;;;;;19.72;32.34;102903.84;5006155;28;123843;-60
2022/03/24 10:21:49;;;;;;;26.75;15.63;;;;;;;19.81;32.53;102895.34;5008497;28;124039;-62
2022/03/24 10:24:19;;;;;;;30.23;16.38;;;;;;;19.89;31.94;102895.84;5005068;28;107421;-63
2022/03/24 10:27:00;;;;;;;26.02;14.93;;;;;;;19.96;31.22;102894.53;5005343;28;110064;-65
2022/03/24 10:29:29;;;;;;;28.52;16.33;;;;;;;20.05;31.39;102892.34;5017130;28;123156;-63
2022/03/24 10:31:59;;;;;;;26.50;16.05;;;;;;;20.12;30.76;102891.06;5002942;28;123965;-64
2022/03/24 10:34:35;;;;;;;26.05;15.55;;;;;;;20.16;30.46;102881.88;5003984;28;106778;-63
2022/03/24 10:37:09;;;;;;;38.38;17.38;;;;;;;20.24;30.36;102885.03;5006550;28;109922;-61
2022/03/24 10:39:38;;;;;;;31.75;15.57;;;;;;;20.32;30.54;102880.09;5000865;28;124420;-62
2022/03/24 10:42:18;;;;;;;25.80;15.13;;;;;;;20.39;29.89;102883.34;4996199;28;124309;-63
2022/03/24 10:45:11;;;;;;;26.17;15.63;;;;;;;20.46;29.89;102879.38;5006887;28;108143;-63
2022/03/24 10:47:43;;;;;;;25.65;15.93;;;;;;;20.53;29.84;102879.88;5005644;28;110072;-62
2022/03/24 10:50:28;;;;;;;26.60;15.68;;;;;;;20.61;29.37;102883.06;5002902;28;124132;-62
2022/03/24 10:52:59;;;;;;;;;;;;;;;20.65;30.37;102878.41;5002784;28;124222;-62
2022/03/24 10:55:40;;;;;;;21.25;13.43;;;;;;;20.74;28.91;102877.88;5005461;28;107513;-61
2022/03/24 10:58:13;;;;;;;17.40;12.93;;;;;;;20.82;28.08;102874.75;5005841;28;110269;-62
2022/03/24 11:00:41;;;;;;;20.70;12.55;;;;;;;20.88;27.84;102874.41;5004241;28;124475;-61
2022/03/24 11:03:10;;;;;;;17.20;12.57;;;;;;;20.97;27.16;102873.88;5003965;28;123792;-61
2022/03/24 11:05:37;;;;;;;18.98;12.15;;;;;;;21.05;27.20;102871.63;5005790;28;107399;-60
2022/03/24 11:08:08;;;;;;;17.73;11.93;;;;;;;21.14;26.85;102873.78;5002678;28;110698;-61
2022/03/24 11:11:05;;;;;;;17.77;12.30;;;;;;;21.20;26.49;102870.72;5003387;28;123882;-61
2022/03/24 11:13:45;;;;;;;19.38;12.43;;;;;;;21.25;25.69;102872.28;5003069;28;123961;-60
2022/03/24 11:16:13;;;;;;;17.25;12.02;;;;;;;21.30;25.92;102878.28;5004862;28;107417;-61